sensor_id;sensor_type;location;lat;lon;timestamp;temperature;humidity
7077;DHT22;3579;48.956;9.154;2023-05-31T00:00:47;25.10;41.30
7077;DHT22;3579;48.956;9.154;2023-05-31T00:03:13;25.10;41.30
7077;DHT22;3579;48.956;9.154;2023-05-31T00:05:39;25.10;41.30
7077;DHT22;3579;48.956;9.154;2023-05-31T00:08:05;25.10;41.40
7077;DHT22;3579;48.956;9.154;2023-05-31T00:10:32;25.10;41.40
7077;DHT22;3579;48.956;9.154;2023-05-31T00:12:58;25.10;41.40
7077;DHT22;3579;48.956;9.154;2023-05-31T00:15:24;25.10;41.40
7077;DHT22;3579;48.956;9.154;2023-05-31T00:17:50;25.10;41.40
7077;DHT22;3579;48.956;9.154;2023-05-31T00:20:17;25.00;41.40
7077;DHT22;3579;48.956;9.154;2023-05-31T00:22:43;25.00;41.40
7077;DHT22;3579;48.956;9.154;2023-05-31T00:25:09;25.00;41.50
7077;DHT22;3579;48.956;9.154;2023-05-31T00:27:35;25.00;41.50
7077;DHT22;3579;48.956;9.154;2023-05-31T00:30:01;25.00;41.50
7077;DHT22;3579;48.956;9.154;2023-05-31T00:32:27;24.90;41.50
7077;DHT22;3579;48.956;9.154;2023-05-31T00:34:53;24.90;41.50
7077;DHT22;3579;48.956;9.154;2023-05-31T00:37:19;24.90;41.50
7077;DHT22;3579;48.956;9.154;2023-05-31T00:39:45;24.90;41.60
7077;DHT22;3579;48.956;9.154;2023-05-31T00:42:11;24.90;41.60
7077;DHT22;3579;48.956;9.154;2023-05-31T00:44:36;24.90;41.60
7077;DHT22;3579;48.956;9.154;2023-05-31T00:47:03;24.90;41.70
7077;DHT22;3579;48.956;9.154;2023-05-31T00:49:29;24.90;41.70
7077;DHT22;3579;48.956;9.154;2023-05-31T00:51:56;24.90;41.70
7077;DHT22;3579;48.956;9.154;2023-05-31T00:54:22;24.80;41.70
7077;DHT22;3579;48.956;9.154;2023-05-31T00:56:48;24.80;41.70
7077;DHT22;3579;48.956;9.154;2023-05-31T00:59:15;24.80;41.70
7077;DHT22;3579;48.956;9.154;2023-05-31T01:01:41;24.80;41.70
7077;DHT22;3579;48.956;9.154;2023-05-31T01:04:08;24.80;41.70
7077;DHT22;3579;48.956;9.154;2023-05-31T01:06:34;24.80;41.80
7077;DHT22;3579;48.956;9.154;2023-05-31T01:09:03;24.80;41.80
7077;DHT22;3579;48.956;9.154;2023-05-31T01:14:51;24.70;41.80
7077;DHT22;3579;48.956;9.154;2023-05-31T01:17:40;24.70;41.80
7077;DHT22;3579;48.956;9.154;2023-05-31T01:20:11;24.70;41.80
7077;DHT22;3579;48.956;9.154;2023-05-31T01:28:07;24.70;41.90
7077;DHT22;3579;48.956;9.154;2023-05-31T01:30:37;24.70;41.90
7077;DHT22;3579;48.956;9.154;2023-05-31T01:33:09;24.70;41.90
7077;DHT22;3579;48.956;9.154;2023-05-31T01:35:38;24.60;41.90
7077;DHT22;3579;48.956;9.154;2023-05-31T01:38:04;24.60;41.90
7077;DHT22;3579;48.956;9.154;2023-05-31T01:40:31;24.60;41.90
7077;DHT22;3579;48.956;9.154;2023-05-31T01:42:58;24.60;42.00
7077;DHT22;3579;48.956;9.154;2023-05-31T01:45:25;24.60;42.00
7077;DHT22;3579;48.956;9.154;2023-05-31T01:47:58;24.60;42.10
7077;DHT22;3579;48.956;9.154;2023-05-31T01:50:25;24.60;42.10
7077;DHT22;3579;48.956;9.154;2023-05-31T01:52:52;24.50;42.00
7077;DHT22;3579;48.956;9.154;2023-05-31T01:55:18;24.50;42.10
7077;DHT22;3579;48.956;9.154;2023-05-31T01:57:46;24.50;42.10
7077;DHT22;3579;48.956;9.154;2023-05-31T02:00:13;24.50;42.10
7077;DHT22;3579;48.956;9.154;2023-05-31T02:02:41;24.50;42.10
7077;DHT22;3579;48.956;9.154;2023-05-31T02:05:09;24.50;42.10
7077;DHT22;3579;48.956;9.154;2023-05-31T02:07:44;24.50;42.10
7077;DHT22;3579;48.956;9.154;2023-05-31T02:10:12;24.50;42.20
7077;DHT22;3579;48.956;9.154;2023-05-31T02:12:38;24.50;42.20
7077;DHT22;3579;48.956;9.154;2023-05-31T02:15:04;24.40;42.20
7077;DHT22;3579;48.956;9.154;2023-05-31T02:17:37;24.50;42.30
7077;DHT22;3579;48.956;9.154;2023-05-31T02:20:11;24.40;42.20
7077;DHT22;3579;48.956;9.154;2023-05-31T02:22:42;24.40;42.20
7077;DHT22;3579;48.956;9.154;2023-05-31T02:25:09;24.40;42.30
7077;DHT22;3579;48.956;9.154;2023-05-31T02:27:36;24.40;42.30
7077;DHT22;3579;48.956;9.154;2023-05-31T02:30:04;24.40;42.30
7077;DHT22;3579;48.956;9.154;2023-05-31T02:32:32;24.30;42.30
7077;DHT22;3579;48.956;9.154;2023-05-31T02:35:08;24.30;42.30
7077;DHT22;3579;48.956;9.154;2023-05-31T02:37:35;24.30;42.30
7077;DHT22;3579;48.956;9.154;2023-05-31T02:40:03;24.30;42.40
7077;DHT22;3579;48.956;9.154;2023-05-31T02:42:41;24.30;42.40
7077;DHT22;3579;48.956;9.154;2023-05-31T02:45:08;24.30;42.40
7077;DHT22;3579;48.956;9.154;2023-05-31T02:47:37;24.30;42.40
7077;DHT22;3579;48.956;9.154;2023-05-31T02:50:07;24.30;42.40
7077;DHT22;3579;48.956;9.154;2023-05-31T02:52:36;24.30;42.50
7077;DHT22;3579;48.956;9.154;2023-05-31T02:55:04;24.20;42.40
7077;DHT22;3579;48.956;9.154;2023-05-31T02:57:30;24.20;42.40
7077;DHT22;3579;48.956;9.154;2023-05-31T02:59:58;24.20;42.40
7077;DHT22;3579;48.956;9.154;2023-05-31T03:02:24;24.20;42.50
7077;DHT22;3579;48.956;9.154;2023-05-31T03:04:51;24.20;42.50
7077;DHT22;3579;48.956;9.154;2023-05-31T03:07:17;24.20;42.50
7077;DHT22;3579;48.956;9.154;2023-05-31T03:09:43;24.20;42.60
7077;DHT22;3579;48.956;9.154;2023-05-31T03:12:09;24.10;42.50
7077;DHT22;3579;48.956;9.154;2023-05-31T03:14:35;24.20;42.60
7077;DHT22;3579;48.956;9.154;2023-05-31T03:17:02;24.20;42.60
7077;DHT22;3579;48.956;9.154;2023-05-31T03:19:28;24.10;42.60
7077;DHT22;3579;48.956;9.154;2023-05-31T03:21:54;24.10;42.60
7077;DHT22;3579;48.956;9.154;2023-05-31T03:24:20;24.10;42.60
7077;DHT22;3579;48.956;9.154;2023-05-31T03:26:46;24.00;42.60
7077;DHT22;3579;48.956;9.154;2023-05-31T03:29:12;24.10;42.60
7077;DHT22;3579;48.956;9.154;2023-05-31T03:31:38;24.10;42.60
7077;DHT22;3579;48.956;9.154;2023-05-31T03:34:04;24.00;42.60
7077;DHT22;3579;48.956;9.154;2023-05-31T03:36:30;24.00;42.60
7077;DHT22;3579;48.956;9.154;2023-05-31T03:38:56;24.00;43.10
7077;DHT22;3579;48.956;9.154;2023-05-31T03:41:22;24.10;42.70
7077;DHT22;3579;48.956;9.154;2023-05-31T03:43:48;24.10;42.70
7077;DHT22;3579;48.956;9.154;2023-05-31T03:46:16;24.10;42.60
7077;DHT22;3579;48.956;9.154;2023-05-31T03:48:42;24.10;42.60
7077;DHT22;3579;48.956;9.154;2023-05-31T03:51:08;24.20;42.60
7077;DHT22;3579;48.956;9.154;2023-05-31T03:53:34;24.20;42.60
7077;DHT22;3579;48.956;9.154;2023-05-31T03:56:00;24.20;42.60
7077;DHT22;3579;48.956;9.154;2023-05-31T03:58:26;24.30;42.60
7077;DHT22;3579;48.956;9.154;2023-05-31T04:00:52;24.30;42.60
7077;DHT22;3579;48.956;9.154;2023-05-31T04:03:18;24.30;42.50
7077;DHT22;3579;48.956;9.154;2023-05-31T04:05:44;24.30;42.50
7077;DHT22;3579;48.956;9.154;2023-05-31T04:08:10;24.40;42.50
7077;DHT22;3579;48.956;9.154;2023-05-31T04:10:36;24.40;42.50
7077;DHT22;3579;48.956;9.154;2023-05-31T04:13:02;24.50;42.60
7077;DHT22;3579;48.956;9.154;2023-05-31T04:15:28;24.50;42.50
7077;DHT22;3579;48.956;9.154;2023-05-31T04:17:54;24.60;42.50
7077;DHT22;3579;48.956;9.154;2023-05-31T04:20:21;24.60;42.50
7077;DHT22;3579;48.956;9.154;2023-05-31T04:22:47;24.70;42.50
7077;DHT22;3579;48.956;9.154;2023-05-31T04:25:13;24.70;42.50
7077;DHT22;3579;48.956;9.154;2023-05-31T04:27:43;24.80;42.50
7077;DHT22;3579;48.956;9.154;2023-05-31T04:30:09;24.80;42.30
7077;DHT22;3579;48.956;9.154;2023-05-31T04:32:35;24.90;42.30
7077;DHT22;3579;48.956;9.154;2023-05-31T04:35:02;25.00;42.30
7077;DHT22;3579;48.956;9.154;2023-05-31T04:37:32;24.90;42.00
7077;DHT22;3579;48.956;9.154;2023-05-31T04:39:59;25.10;42.00
7077;DHT22;3579;48.956;9.154;2023-05-31T04:42:26;25.20;41.90
7077;DHT22;3579;48.956;9.154;2023-05-31T04:44:53;25.30;41.80
7077;DHT22;3579;48.956;9.154;2023-05-31T04:47:33;25.40;41.70
7077;DHT22;3579;48.956;9.154;2023-05-31T04:49:59;25.50;41.70
7077;DHT22;3579;48.956;9.154;2023-05-31T04:52:28;25.60;41.60
7077;DHT22;3579;48.956;9.154;2023-05-31T04:54:55;25.70;41.40
7077;DHT22;3579;48.956;9.154;2023-05-31T04:57:26;25.80;41.30
7077;DHT22;3579;48.956;9.154;2023-05-31T04:59:55;25.90;41.20
7077;DHT22;3579;48.956;9.154;2023-05-31T05:02:24;26.00;41.70
7077;DHT22;3579;48.956;9.154;2023-05-31T05:04:52;26.10;40.90
7077;DHT22;3579;48.956;9.154;2023-05-31T05:07:18;26.20;40.80
7077;DHT22;3579;48.956;9.154;2023-05-31T05:09:46;26.30;40.70
7077;DHT22;3579;48.956;9.154;2023-05-31T05:12:12;26.40;40.70
7077;DHT22;3579;48.956;9.154;2023-05-31T05:14:38;26.50;40.60
7077;DHT22;3579;48.956;9.154;2023-05-31T05:17:05;26.60;40.50
7077;DHT22;3579;48.956;9.154;2023-05-31T05:19:31;26.60;40.30
7077;DHT22;3579;48.956;9.154;2023-05-31T05:21:57;26.70;40.20
7077;DHT22;3579;48.956;9.154;2023-05-31T05:24:23;26.80;40.20
7077;DHT22;3579;48.956;9.154;2023-05-31T05:26:51;26.90;40.30
7077;DHT22;3579;48.956;9.154;2023-05-31T05:29:17;26.90;40.20
7077;DHT22;3579;48.956;9.154;2023-05-31T05:31:43;27.00;40.20
7077;DHT22;3579;48.956;9.154;2023-05-31T05:34:09;27.10;40.10
7077;DHT22;3579;48.956;9.154;2023-05-31T05:36:35;27.20;40.00
7077;DHT22;3579;48.956;9.154;2023-05-31T05:39:03;27.30;40.10
7077;DHT22;3579;48.956;9.154;2023-05-31T05:41:33;27.40;40.00
7077;DHT22;3579;48.956;9.154;2023-05-31T05:44:00;27.50;40.10
7077;DHT22;3579;48.956;9.154;2023-05-31T05:46:26;27.60;40.10
7077;DHT22;3579;48.956;9.154;2023-05-31T05:48:52;27.70;39.90
7077;DHT22;3579;48.956;9.154;2023-05-31T05:51:18;27.80;39.80
7077;DHT22;3579;48.956;9.154;2023-05-31T05:53:44;27.90;39.80
7077;DHT22;3579;48.956;9.154;2023-05-31T05:56:10;28.00;39.60
7077;DHT22;3579;48.956;9.154;2023-05-31T05:58:37;28.10;39.60
7077;DHT22;3579;48.956;9.154;2023-05-31T06:01:03;28.30;39.40
7077;DHT22;3579;48.956;9.154;2023-05-31T06:03:29;28.40;39.30
7077;DHT22;3579;48.956;9.154;2023-05-31T06:05:56;28.60;39.20
7077;DHT22;3579;48.956;9.154;2023-05-31T06:08:23;28.70;38.80
7077;DHT22;3579;48.956;9.154;2023-05-31T06:10:49;29.00;38.60
7077;DHT22;3579;48.956;9.154;2023-05-31T06:13:15;29.20;38.30
7077;DHT22;3579;48.956;9.154;2023-05-31T06:15:41;29.40;38.00
7077;DHT22;3579;48.956;9.154;2023-05-31T06:18:07;29.60;37.60
7077;DHT22;3579;48.956;9.154;2023-05-31T06:20:35;29.90;37.30
7077;DHT22;3579;48.956;9.154;2023-05-31T06:23:01;30.10;37.00
7077;DHT22;3579;48.956;9.154;2023-05-31T06:25:27;29.60;36.20
7077;DHT22;3579;48.956;9.154;2023-05-31T06:27:54;30.50;36.40
7077;DHT22;3579;48.956;9.154;2023-05-31T06:30:23;30.80;36.00
7077;DHT22;3579;48.956;9.154;2023-05-31T06:32:49;31.00;35.80
7077;DHT22;3579;48.956;9.154;2023-05-31T06:35:14;31.20;35.40
7077;DHT22;3579;48.956;9.154;2023-05-31T06:37:41;31.40;35.00
7077;DHT22;3579;48.956;9.154;2023-05-31T06:40:07;31.70;34.80
7077;DHT22;3579;48.956;9.154;2023-05-31T06:42:34;31.90;34.30
7077;DHT22;3579;48.956;9.154;2023-05-31T06:45:00;32.10;34.30
7077;DHT22;3579;48.956;9.154;2023-05-31T06:47:26;32.30;34.30
7077;DHT22;3579;48.956;9.154;2023-05-31T06:49:52;32.50;34.60
7077;DHT22;3579;48.956;9.154;2023-05-31T06:52:18;32.70;34.20
7077;DHT22;3579;48.956;9.154;2023-05-31T06:54:44;32.80;33.70
7077;DHT22;3579;48.956;9.154;2023-05-31T06:57:11;32.90;33.50
7077;DHT22;3579;48.956;9.154;2023-05-31T06:59:37;33.00;33.40
7077;DHT22;3579;48.956;9.154;2023-05-31T07:02:03;33.10;33.40
7077;DHT22;3579;48.956;9.154;2023-05-31T07:04:29;31.20;27.80
7077;DHT22;3579;48.956;9.154;2023-05-31T07:06:55;29.30;28.60
7077;DHT22;3579;48.956;9.154;2023-05-31T07:09:21;28.00;29.90
7077;DHT22;3579;48.956;9.154;2023-05-31T07:11:47;27.80;30.40
7077;DHT22;3579;48.956;9.154;2023-05-31T07:14:13;27.20;31.00
7077;DHT22;3579;48.956;9.154;2023-05-31T07:16:39;27.20;31.10
7077;DHT22;3579;48.956;9.154;2023-05-31T07:19:05;26.50;32.00
7077;DHT22;3579;48.956;9.154;2023-05-31T07:21:31;26.50;32.00
7077;DHT22;3579;48.956;9.154;2023-05-31T07:23:58;26.60;31.90
7077;DHT22;3579;48.956;9.154;2023-05-31T07:26:24;26.40;32.50
7077;DHT22;3579;48.956;9.154;2023-05-31T07:28:51;25.80;33.10
7077;DHT22;3579;48.956;9.154;2023-05-31T07:31:21;25.30;33.30
7077;DHT22;3579;48.956;9.154;2023-05-31T07:33:47;25.50;33.90
7077;DHT22;3579;48.956;9.154;2023-05-31T07:36:13;24.70;34.40
7077;DHT22;3579;48.956;9.154;2023-05-31T07:38:40;24.70;34.20
7077;DHT22;3579;48.956;9.154;2023-05-31T07:41:06;25.10;33.80
7077;DHT22;3579;48.956;9.154;2023-05-31T07:43:33;25.00;34.10
7077;DHT22;3579;48.956;9.154;2023-05-31T07:46:00;25.00;34.30
7077;DHT22;3579;48.956;9.154;2023-05-31T07:48:26;24.90;34.40
7077;DHT22;3579;48.956;9.154;2023-05-31T07:50:54;24.90;33.70
7077;DHT22;3579;48.956;9.154;2023-05-31T07:53:20;24.90;34.10
7077;DHT22;3579;48.956;9.154;2023-05-31T07:55:46;24.40;34.50
7077;DHT22;3579;48.956;9.154;2023-05-31T07:58:13;24.40;34.60
7077;DHT22;3579;48.956;9.154;2023-05-31T08:00:39;24.60;35.00
7077;DHT22;3579;48.956;9.154;2023-05-31T08:03:05;24.70;34.70
7077;DHT22;3579;48.956;9.154;2023-05-31T08:05:32;24.70;35.20
7077;DHT22;3579;48.956;9.154;2023-05-31T08:07:58;24.70;34.50
7077;DHT22;3579;48.956;9.154;2023-05-31T08:10:25;24.50;34.60
7077;DHT22;3579;48.956;9.154;2023-05-31T08:12:51;24.60;34.90
7077;DHT22;3579;48.956;9.154;2023-05-31T08:15:18;24.60;35.30
7077;DHT22;3579;48.956;9.154;2023-05-31T08:17:44;24.60;35.10
7077;DHT22;3579;48.956;9.154;2023-05-31T08:20:12;24.60;34.70
7077;DHT22;3579;48.956;9.154;2023-05-31T08:22:42;24.40;35.10
7077;DHT22;3579;48.956;9.154;2023-05-31T08:25:08;24.60;35.00
7077;DHT22;3579;48.956;9.154;2023-05-31T08:27:34;24.60;35.50
7077;DHT22;3579;48.956;9.154;2023-05-31T08:30:01;24.70;35.70
7077;DHT22;3579;48.956;9.154;2023-05-31T08:32:27;24.80;35.80
7077;DHT22;3579;48.956;9.154;2023-05-31T08:34:53;24.50;35.90
7077;DHT22;3579;48.956;9.154;2023-05-31T08:37:19;24.60;35.10
7077;DHT22;3579;48.956;9.154;2023-05-31T08:39:46;24.50;35.00
7077;DHT22;3579;48.956;9.154;2023-05-31T08:42:19;24.50;34.90
7077;DHT22;3579;48.956;9.154;2023-05-31T08:44:50;24.50;35.00
7077;DHT22;3579;48.956;9.154;2023-05-31T08:47:23;24.70;35.20
7077;DHT22;3579;48.956;9.154;2023-05-31T08:49:54;24.80;35.20
7077;DHT22;3579;48.956;9.154;2023-05-31T08:52:21;24.90;35.20
7077;DHT22;3579;48.956;9.154;2023-05-31T08:54:48;25.00;35.20
7077;DHT22;3579;48.956;9.154;2023-05-31T08:57:14;25.10;35.30
7077;DHT22;3579;48.956;9.154;2023-05-31T08:59:42;25.10;35.40
7077;DHT22;3579;48.956;9.154;2023-05-31T09:02:09;25.10;35.40
7077;DHT22;3579;48.956;9.154;2023-05-31T09:04:36;25.20;35.20
7077;DHT22;3579;48.956;9.154;2023-05-31T09:07:03;25.20;35.40
7077;DHT22;3579;48.956;9.154;2023-05-31T09:09:29;25.20;35.90
7077;DHT22;3579;48.956;9.154;2023-05-31T09:11:55;25.30;35.20
7077;DHT22;3579;48.956;9.154;2023-05-31T09:14:23;25.30;35.20
7077;DHT22;3579;48.956;9.154;2023-05-31T09:16:50;25.30;35.30
7077;DHT22;3579;48.956;9.154;2023-05-31T09:19:17;25.30;35.20
7077;DHT22;3579;48.956;9.154;2023-05-31T09:21:44;25.30;35.30
7077;DHT22;3579;48.956;9.154;2023-05-31T09:24:12;25.40;35.00
7077;DHT22;3579;48.956;9.154;2023-05-31T09:26:47;25.40;35.70
7077;DHT22;3579;48.956;9.154;2023-05-31T09:29:13;25.50;35.00
7077;DHT22;3579;48.956;9.154;2023-05-31T09:31:41;25.50;34.90
7077;DHT22;3579;48.956;9.154;2023-05-31T09:34:27;25.50;34.50
7077;DHT22;3579;48.956;9.154;2023-05-31T09:36:58;25.50;34.50
7077;DHT22;3579;48.956;9.154;2023-05-31T09:39:25;25.50;34.40
7077;DHT22;3579;48.956;9.154;2023-05-31T09:41:52;25.60;34.50
7077;DHT22;3579;48.956;9.154;2023-05-31T09:44:18;25.60;34.50
7077;DHT22;3579;48.956;9.154;2023-05-31T09:46:45;25.60;34.10
7077;DHT22;3579;48.956;9.154;2023-05-31T09:49:12;25.60;33.90
7077;DHT22;3579;48.956;9.154;2023-05-31T09:51:38;25.60;33.70
7077;DHT22;3579;48.956;9.154;2023-05-31T09:54:13;25.70;33.80
7077;DHT22;3579;48.956;9.154;2023-05-31T09:56:40;25.60;33.40
7077;DHT22;3579;48.956;9.154;2023-05-31T09:59:10;25.60;33.20
7077;DHT22;3579;48.956;9.154;2023-05-31T10:01:37;25.70;33.50
7077;DHT22;3579;48.956;9.154;2023-05-31T10:04:04;25.80;33.90
7077;DHT22;3579;48.956;9.154;2023-05-31T10:06:31;25.80;33.60
7077;DHT22;3579;48.956;9.154;2023-05-31T10:09:02;25.80;33.10
7077;DHT22;3579;48.956;9.154;2023-05-31T10:11:32;25.80;33.20
7077;DHT22;3579;48.956;9.154;2023-05-31T10:14:03;25.80;33.10
7077;DHT22;3579;48.956;9.154;2023-05-31T10:16:42;25.80;33.30
7077;DHT22;3579;48.956;9.154;2023-05-31T10:19:11;25.80;33.20
7077;DHT22;3579;48.956;9.154;2023-05-31T10:21:42;25.80;33.40
7077;DHT22;3579;48.956;9.154;2023-05-31T10:24:13;25.80;33.30
7077;DHT22;3579;48.956;9.154;2023-05-31T10:29:48;25.80;33.20
7077;DHT22;3579;48.956;9.154;2023-05-31T10:32:24;25.90;33.10
7077;DHT22;3579;48.956;9.154;2023-05-31T10:34:50;25.90;33.30
7077;DHT22;3579;48.956;9.154;2023-05-31T10:37:18;25.90;32.90
7077;DHT22;3579;48.956;9.154;2023-05-31T10:39:46;25.90;33.30
7077;DHT22;3579;48.956;9.154;2023-05-31T10:45:08;25.90;32.20
7077;DHT22;3579;48.956;9.154;2023-05-31T10:47:42;25.90;32.10
7077;DHT22;3579;48.956;9.154;2023-05-31T10:50:08;25.90;32.20
7077;DHT22;3579;48.956;9.154;2023-05-31T10:52:42;25.90;32.10
7077;DHT22;3579;48.956;9.154;2023-05-31T10:55:19;25.90;32.50
7077;DHT22;3579;48.956;9.154;2023-05-31T10:57:55;26.00;32.40
7077;DHT22;3579;48.956;9.154;2023-05-31T11:00:22;26.00;32.60
7077;DHT22;3579;48.956;9.154;2023-05-31T11:02:53;26.00;32.60
7077;DHT22;3579;48.956;9.154;2023-05-31T11:05:22;26.00;32.60
7077;DHT22;3579;48.956;9.154;2023-05-31T11:07:49;26.00;33.00
7077;DHT22;3579;48.956;9.154;2023-05-31T11:12:55;26.10;33.00
7077;DHT22;3579;48.956;9.154;2023-05-31T11:15:21;26.10;33.10
7077;DHT22;3579;48.956;9.154;2023-05-31T11:17:56;26.10;33.00
7077;DHT22;3579;48.956;9.154;2023-05-31T11:20:33;26.10;33.00
7077;DHT22;3579;48.956;9.154;2023-05-31T11:26:08;26.10;32.10
7077;DHT22;3579;48.956;9.154;2023-05-31T11:28:56;26.10;32.20
7077;DHT22;3579;48.956;9.154;2023-05-31T11:34:29;26.10;32.20
7077;DHT22;3579;48.956;9.154;2023-05-31T11:37:03;26.10;32.30
7077;DHT22;3579;48.956;9.154;2023-05-31T11:39:30;26.10;32.30
7077;DHT22;3579;48.956;9.154;2023-05-31T11:41:57;26.20;32.70
7077;DHT22;3579;48.956;9.154;2023-05-31T11:44:30;26.20;32.40
7077;DHT22;3579;48.956;9.154;2023-05-31T11:47:04;26.20;32.50
7077;DHT22;3579;48.956;9.154;2023-05-31T11:49:31;26.20;32.40
7077;DHT22;3579;48.956;9.154;2023-05-31T11:51:58;26.20;32.40
7077;DHT22;3579;48.956;9.154;2023-05-31T11:54:26;26.20;32.30
7077;DHT22;3579;48.956;9.154;2023-05-31T11:56:56;26.20;32.30
7077;DHT22;3579;48.956;9.154;2023-05-31T11:59:24;26.20;31.60
7077;DHT22;3579;48.956;9.154;2023-05-31T12:01:50;26.20;31.30
7077;DHT22;3579;48.956;9.154;2023-05-31T12:04:16;26.20;31.00
7077;DHT22;3579;48.956;9.154;2023-05-31T12:06:43;26.20;31.00
7077;DHT22;3579;48.956;9.154;2023-05-31T12:09:09;26.20;31.10
7077;DHT22;3579;48.956;9.154;2023-05-31T12:11:37;26.30;31.20
7077;DHT22;3579;48.956;9.154;2023-05-31T12:14:03;26.20;30.10
7077;DHT22;3579;48.956;9.154;2023-05-31T12:16:29;26.20;30.40
7077;DHT22;3579;48.956;9.154;2023-05-31T12:18:55;26.30;31.20
7077;DHT22;3579;48.956;9.154;2023-05-31T12:21:21;26.30;31.60
7077;DHT22;3579;48.956;9.154;2023-05-31T12:23:56;26.30;31.60
7077;DHT22;3579;48.956;9.154;2023-05-31T12:26:24;26.30;31.80
7077;DHT22;3579;48.956;9.154;2023-05-31T12:28:52;26.30;32.00
7077;DHT22;3579;48.956;9.154;2023-05-31T12:31:22;26.30;32.50
7077;DHT22;3579;48.956;9.154;2023-05-31T12:34:08;26.30;32.20
7077;DHT22;3579;48.956;9.154;2023-05-31T12:36:41;26.30;32.00
7077;DHT22;3579;48.956;9.154;2023-05-31T12:41:40;26.40;31.90
7077;DHT22;3579;48.956;9.154;2023-05-31T12:44:06;26.40;31.90
7077;DHT22;3579;48.956;9.154;2023-05-31T12:46:40;26.30;31.80
7077;DHT22;3579;48.956;9.154;2023-05-31T12:49:18;26.40;31.90
7077;DHT22;3579;48.956;9.154;2023-05-31T12:51:44;26.40;32.10
7077;DHT22;3579;48.956;9.154;2023-05-31T12:54:16;26.40;32.30
7077;DHT22;3579;48.956;9.154;2023-05-31T12:56:42;26.40;32.10
7077;DHT22;3579;48.956;9.154;2023-05-31T12:59:08;26.40;32.10
7077;DHT22;3579;48.956;9.154;2023-05-31T13:01:35;26.40;32.60
7077;DHT22;3579;48.956;9.154;2023-05-31T13:04:04;26.40;32.00
7077;DHT22;3579;48.956;9.154;2023-05-31T13:06:33;26.40;32.40
7077;DHT22;3579;48.956;9.154;2023-05-31T13:08:59;26.40;32.20
7077;DHT22;3579;48.956;9.154;2023-05-31T13:11:26;26.40;32.00
7077;DHT22;3579;48.956;9.154;2023-05-31T13:13:53;26.50;32.00
7077;DHT22;3579;48.956;9.154;2023-05-31T13:16:20;26.50;32.20
7077;DHT22;3579;48.956;9.154;2023-05-31T13:18:46;26.50;32.50
7077;DHT22;3579;48.956;9.154;2023-05-31T13:21:12;26.50;32.20
7077;DHT22;3579;48.956;9.154;2023-05-31T13:23:39;26.50;32.10
7077;DHT22;3579;48.956;9.154;2023-05-31T13:26:05;26.50;32.40
7077;DHT22;3579;48.956;9.154;2023-05-31T13:28:31;26.50;31.80
7077;DHT22;3579;48.956;9.154;2023-05-31T13:30:57;26.50;30.30
7077;DHT22;3579;48.956;9.154;2023-05-31T13:33:23;26.50;29.50
7077;DHT22;3579;48.956;9.154;2023-05-31T13:35:52;26.50;29.40
7077;DHT22;3579;48.956;9.154;2023-05-31T13:38:22;26.50;29.90
7077;DHT22;3579;48.956;9.154;2023-05-31T13:40:49;26.50;30.00
7077;DHT22;3579;48.956;9.154;2023-05-31T13:43:21;26.50;30.50
7077;DHT22;3579;48.956;9.154;2023-05-31T13:45:50;26.50;30.50
7077;DHT22;3579;48.956;9.154;2023-05-31T13:48:17;26.50;30.70
7077;DHT22;3579;48.956;9.154;2023-05-31T13:50:43;26.50;30.90
7077;DHT22;3579;48.956;9.154;2023-05-31T13:53:09;26.50;30.40
7077;DHT22;3579;48.956;9.154;2023-05-31T13:55:39;26.50;30.20
7077;DHT22;3579;48.956;9.154;2023-05-31T13:58:06;26.50;30.20
7077;DHT22;3579;48.956;9.154;2023-05-31T14:00:33;26.50;30.40
7077;DHT22;3579;48.956;9.154;2023-05-31T14:02:59;26.50;30.50
7077;DHT22;3579;48.956;9.154;2023-05-31T14:05:26;26.50;30.60
7077;DHT22;3579;48.956;9.154;2023-05-31T14:07:52;26.50;30.90
7077;DHT22;3579;48.956;9.154;2023-05-31T14:10:19;26.60;31.50
7077;DHT22;3579;48.956;9.154;2023-05-31T14:12:45;26.70;31.70
7077;DHT22;3579;48.956;9.154;2023-05-31T14:15:12;26.80;31.90
7077;DHT22;3579;48.956;9.154;2023-05-31T14:17:38;26.80;31.80
7077;DHT22;3579;48.956;9.154;2023-05-31T14:20:05;26.80;31.90
7077;DHT22;3579;48.956;9.154;2023-05-31T14:22:32;26.90;32.10
7077;DHT22;3579;48.956;9.154;2023-05-31T14:24:58;26.90;32.10
7077;DHT22;3579;48.956;9.154;2023-05-31T14:27:24;26.90;32.10
7077;DHT22;3579;48.956;9.154;2023-05-31T14:29:50;26.90;32.30
7077;DHT22;3579;48.956;9.154;2023-05-31T14:32:16;26.90;32.30
7077;DHT22;3579;48.956;9.154;2023-05-31T14:34:46;27.00;32.40
7077;DHT22;3579;48.956;9.154;2023-05-31T14:37:12;27.00;32.80
7077;DHT22;3579;48.956;9.154;2023-05-31T14:39:38;27.00;30.50
7077;DHT22;3579;48.956;9.154;2023-05-31T14:42:05;26.60;28.30
7077;DHT22;3579;48.956;9.154;2023-05-31T14:44:34;26.50;28.50
7077;DHT22;3579;48.956;9.154;2023-05-31T14:47:02;26.50;28.20
7077;DHT22;3579;48.956;9.154;2023-05-31T14:49:28;26.30;28.20
7077;DHT22;3579;48.956;9.154;2023-05-31T14:51:54;26.40;28.70
7077;DHT22;3579;48.956;9.154;2023-05-31T14:54:23;26.40;28.10
7077;DHT22;3579;48.956;9.154;2023-05-31T14:56:49;26.40;28.50
7077;DHT22;3579;48.956;9.154;2023-05-31T14:59:15;26.30;28.00
7077;DHT22;3579;48.956;9.154;2023-05-31T15:01:41;26.40;28.60
7077;DHT22;3579;48.956;9.154;2023-05-31T15:04:14;26.30;28.10
7077;DHT22;3579;48.956;9.154;2023-05-31T15:06:42;26.10;28.60
7077;DHT22;3579;48.956;9.154;2023-05-31T15:09:08;26.10;28.80
7077;DHT22;3579;48.956;9.154;2023-05-31T15:11:36;26.20;28.20
7077;DHT22;3579;48.956;9.154;2023-05-31T15:14:03;26.20;28.40
7077;DHT22;3579;48.956;9.154;2023-05-31T15:16:30;26.30;28.40
7077;DHT22;3579;48.956;9.154;2023-05-31T15:18:56;26.30;28.50
7077;DHT22;3579;48.956;9.154;2023-05-31T15:21:22;26.10;28.80
7077;DHT22;3579;48.956;9.154;2023-05-31T15:23:48;26.20;29.70
7077;DHT22;3579;48.956;9.154;2023-05-31T15:26:15;26.20;29.70
7077;DHT22;3579;48.956;9.154;2023-05-31T15:28:41;26.20;29.00
7077;DHT22;3579;48.956;9.154;2023-05-31T15:31:07;26.20;28.10
7077;DHT22;3579;48.956;9.154;2023-05-31T15:33:38;26.30;28.20
7077;DHT22;3579;48.956;9.154;2023-05-31T15:36:05;26.20;27.10
7077;DHT22;3579;48.956;9.154;2023-05-31T15:38:32;26.30;28.40
7077;DHT22;3579;48.956;9.154;2023-05-31T15:40:58;26.30;28.40
7077;DHT22;3579;48.956;9.154;2023-05-31T15:43:25;26.10;29.10
7077;DHT22;3579;48.956;9.154;2023-05-31T15:45:51;26.10;29.20
7077;DHT22;3579;48.956;9.154;2023-05-31T15:48:18;26.30;29.20
7077;DHT22;3579;48.956;9.154;2023-05-31T15:50:44;26.40;29.40
7077;DHT22;3579;48.956;9.154;2023-05-31T15:53:10;26.40;29.50
7077;DHT22;3579;48.956;9.154;2023-05-31T15:55:36;26.40;29.80
7077;DHT22;3579;48.956;9.154;2023-05-31T15:58:03;26.40;30.00
7077;DHT22;3579;48.956;9.154;2023-05-31T16:00:29;26.40;30.10
7077;DHT22;3579;48.956;9.154;2023-05-31T16:02:55;26.40;30.30
7077;DHT22;3579;48.956;9.154;2023-05-31T16:05:21;26.50;30.50
7077;DHT22;3579;48.956;9.154;2023-05-31T16:07:47;26.50;30.60
7077;DHT22;3579;48.956;9.154;2023-05-31T16:10:14;26.50;30.70
7077;DHT22;3579;48.956;9.154;2023-05-31T16:12:41;26.50;30.80
7077;DHT22;3579;48.956;9.154;2023-05-31T16:15:08;26.50;30.90
7077;DHT22;3579;48.956;9.154;2023-05-31T16:17:34;26.50;31.00
7077;DHT22;3579;48.956;9.154;2023-05-31T16:20:00;26.50;31.10
7077;DHT22;3579;48.956;9.154;2023-05-31T16:22:26;26.50;31.30
7077;DHT22;3579;48.956;9.154;2023-05-31T16:24:52;26.50;31.40
7077;DHT22;3579;48.956;9.154;2023-05-31T16:27:19;26.50;31.40
7077;DHT22;3579;48.956;9.154;2023-05-31T16:29:45;26.50;31.60